sensor_id;sensor_type;location;lat;lon;timestamp;P1;durP1;ratioP1;P2;durP2;ratioP2
12302;SDS011;6214;48.012;7.862;2022-11-02T00:02:09;13.55;;;1.95;;
12302;SDS011;6214;48.012;7.862;2022-11-02T00:04:36;12.98;;;1.80;;
12302;SDS011;6214;48.012;7.862;2022-11-02T00:07:03;13.55;;;1.50;;
12302;SDS011;6214;48.012;7.862;2022-11-02T00:09:30;12.45;;;1.60;;
12302;SDS011;6214;48.012;7.862;2022-11-02T00:11:56;12.52;;;1.60;;
12302;SDS011;6214;48.012;7.862;2022-11-02T00:14:23;13.63;;;1.90;;
12302;SDS011;6214;48.012;7.862;2022-11-02T00:16:50;12.70;;;1.80;;
12302;SDS011;6214;48.012;7.862;2022-11-02T00:19:17;12.88;;;1.40;;
12302;SDS011;6214;48.012;7.862;2022-11-02T00:21:44;12.52;;;1.52;;
12302;SDS011;6214;48.012;7.862;2022-11-02T00:24:11;12.00;;;1.70;;
12302;SDS011;6214;48.012;7.862;2022-11-02T00:26:38;12.77;;;1.67;;
12302;SDS011;6214;48.012;7.862;2022-11-02T00:29:04;13.88;;;1.80;;
12302;SDS011;6214;48.012;7.862;2022-11-02T00:31:33;12.90;;;2.15;;
12302;SDS011;6214;48.012;7.862;2022-11-02T00:34:00;12.95;;;1.60;;
12302;SDS011;6214;48.012;7.862;2022-11-02T00:36:26;12.13;;;1.40;;
12302;SDS011;6214;48.012;7.862;2022-11-02T00:38:54;13.25;;;1.67;;
12302;SDS011;6214;48.012;7.862;2022-11-02T00:41:20;13.15;;;1.88;;
12302;SDS011;6214;48.012;7.862;2022-11-02T00:43:47;12.95;;;1.58;;
12302;SDS011;6214;48.012;7.862;2022-11-02T00:46:14;13.60;;;1.60;;
12302;SDS011;6214;48.012;7.862;2022-11-02T00:48:41;13.07;;;1.63;;
12302;SDS011;6214;48.012;7.862;2022-11-02T00:51:08;13.00;;;1.50;;
12302;SDS011;6214;48.012;7.862;2022-11-02T00:53:34;13.40;;;1.60;;
12302;SDS011;6214;48.012;7.862;2022-11-02T00:56:01;12.90;;;1.70;;
12302;SDS011;6214;48.012;7.862;2022-11-02T00:58:28;12.93;;;1.60;;
12302;SDS011;6214;48.012;7.862;2022-11-02T01:00:55;13.50;;;1.80;;
12302;SDS011;6214;48.012;7.862;2022-11-02T01:03:22;11.43;;;1.30;;
12302;SDS011;6214;48.012;7.862;2022-11-02T01:05:49;13.30;;;1.60;;
12302;SDS011;6214;48.012;7.862;2022-11-02T01:08:15;13.02;;;1.48;;
12302;SDS011;6214;48.012;7.862;2022-11-02T01:10:42;12.30;;;1.77;;
12302;SDS011;6214;48.012;7.862;2022-11-02T01:13:13;13.47;;;1.60;;
12302;SDS011;6214;48.012;7.862;2022-11-02T01:15:40;13.20;;;1.50;;
12302;SDS011;6214;48.012;7.862;2022-11-02T01:18:08;13.00;;;1.30;;
12302;SDS011;6214;48.012;7.862;2022-11-02T01:20:35;13.52;;;1.50;;
12302;SDS011;6214;48.012;7.862;2022-11-02T01:23:01;11.95;;;1.50;;
12302;SDS011;6214;48.012;7.862;2022-11-02T01:25:28;14.30;;;1.90;;
12302;SDS011;6214;48.012;7.862;2022-11-02T01:27:55;12.50;;;1.65;;
12302;SDS011;6214;48.012;7.862;2022-11-02T01:30:22;13.60;;;1.50;;
12302;SDS011;6214;48.012;7.862;2022-11-02T01:32:48;12.02;;;1.33;;
12302;SDS011;6214;48.012;7.862;2022-11-02T01:35:15;11.95;;;1.20;;
12302;SDS011;6214;48.012;7.862;2022-11-02T01:37:42;14.70;;;1.80;;
12302;SDS011;6214;48.012;7.862;2022-11-02T01:40:09;14.00;;;1.80;;
12302;SDS011;6214;48.012;7.862;2022-11-02T01:42:36;12.20;;;1.70;;
12302;SDS011;6214;48.012;7.862;2022-11-02T01:45:03;12.37;;;1.47;;
12302;SDS011;6214;48.012;7.862;2022-11-02T01:47:32;12.35;;;1.60;;
12302;SDS011;6214;48.012;7.862;2022-11-02T01:50:10;13.38;;;1.40;;
12302;SDS011;6214;48.012;7.862;2022-11-02T01:52:41;11.90;;;1.58;;
12302;SDS011;6214;48.012;7.862;2022-11-02T01:55:15;12.90;;;1.50;;
12302;SDS011;6214;48.012;7.862;2022-11-02T01:57:55;11.57;;;1.40;;
12302;SDS011;6214;48.012;7.862;2022-11-02T02:00:26;12.85;;;1.40;;
12302;SDS011;6214;48.012;7.862;2022-11-02T02:02:58;11.93;;;1.60;;
12302;SDS011;6214;48.012;7.862;2022-11-02T02:05:30;14.70;;;1.70;;
12302;SDS011;6214;48.012;7.862;2022-11-02T02:07:59;13.63;;;1.70;;
12302;SDS011;6214;48.012;7.862;2022-11-02T02:10:28;12.68;;;1.60;;
12302;SDS011;6214;48.012;7.862;2022-11-02T02:12:55;12.65;;;1.65;;
12302;SDS011;6214;48.012;7.862;2022-11-02T02:15:23;13.30;;;1.70;;
12302;SDS011;6214;48.012;7.862;2022-11-02T02:17:58;12.05;;;1.40;;
12302;SDS011;6214;48.012;7.862;2022-11-02T02:20:44;13.68;;;1.70;;
12302;SDS011;6214;48.012;7.862;2022-11-02T02:34:00;14.73;;;1.83;;
12302;SDS011;6214;48.012;7.862;2022-11-02T02:42:06;11.75;;;1.30;;
12302;SDS011;6214;48.012;7.862;2022-11-02T02:45:07;13.40;;;1.80;;
12302;SDS011;6214;48.012;7.862;2022-11-02T02:47:42;13.07;;;1.50;;
12302;SDS011;6214;48.012;7.862;2022-11-02T02:50:20;12.77;;;1.60;;
12302;SDS011;6214;48.012;7.862;2022-11-02T02:52:55;15.68;;;1.88;;
12302;SDS011;6214;48.012;7.862;2022-11-02T02:55:26;15.43;;;2.20;;
12302;SDS011;6214;48.012;7.862;2022-11-02T02:57:59;12.90;;;1.60;;
12302;SDS011;6214;48.012;7.862;2022-11-02T03:00:28;12.43;;;1.60;;
12302;SDS011;6214;48.012;7.862;2022-11-02T03:02:58;12.50;;;1.60;;
12302;SDS011;6214;48.012;7.862;2022-11-02T03:05:37;13.25;;;1.55;;
12302;SDS011;6214;48.012;7.862;2022-11-02T03:08:05;13.07;;;1.63;;
12302;SDS011;6214;48.012;7.862;2022-11-02T03:10:43;13.80;;;1.90;;
12302;SDS011;6214;48.012;7.862;2022-11-02T03:16:03;13.02;;;1.80;;
12302;SDS011;6214;48.012;7.862;2022-11-02T03:24:02;11.95;;;1.50;;
12302;SDS011;6214;48.012;7.862;2022-11-02T03:27:02;13.53;;;1.80;;
12302;SDS011;6214;48.012;7.862;2022-11-02T03:29:55;13.55;;;1.50;;
12302;SDS011;6214;48.012;7.862;2022-11-02T03:32:35;12.95;;;1.50;;
12302;SDS011;6214;48.012;7.862;2022-11-02T03:35:14;12.25;;;1.60;;
12302;SDS011;6214;48.012;7.862;2022-11-02T03:37:52;15.13;;;2.00;;
12302;SDS011;6214;48.012;7.862;2022-11-02T03:40:29;12.57;;;1.55;;
12302;SDS011;6214;48.012;7.862;2022-11-02T03:42:59;13.70;;;1.73;;
12302;SDS011;6214;48.012;7.862;2022-11-02T03:45:34;13.67;;;1.93;;
12302;SDS011;6214;48.012;7.862;2022-11-02T03:48:06;15.70;;;1.90;;
12302;SDS011;6214;48.012;7.862;2022-11-02T03:50:37;13.55;;;1.80;;
12302;SDS011;6214;48.012;7.862;2022-11-02T03:53:09;14.10;;;1.73;;
12302;SDS011;6214;48.012;7.862;2022-11-02T03:55:44;12.38;;;1.40;;
12302;SDS011;6214;48.012;7.862;2022-11-02T03:58:14;12.63;;;1.53;;
12302;SDS011;6214;48.012;7.862;2022-11-02T04:00:49;14.48;;;2.00;;
12302;SDS011;6214;48.012;7.862;2022-11-02T04:03:20;13.80;;;1.90;;
12302;SDS011;6214;48.012;7.862;2022-11-02T04:05:49;15.95;;;2.03;;
12302;SDS011;6214;48.012;7.862;2022-11-02T04:08:18;12.80;;;1.50;;
12302;SDS011;6214;48.012;7.862;2022-11-02T04:10:48;12.55;;;1.80;;
12302;SDS011;6214;48.012;7.862;2022-11-02T04:13:34;14.00;;;1.75;;
12302;SDS011;6214;48.012;7.862;2022-11-02T04:16:20;13.10;;;1.73;;
12302;SDS011;6214;48.012;7.862;2022-11-02T04:18:53;13.85;;;1.90;;
12302;SDS011;6214;48.012;7.862;2022-11-02T04:21:39;13.30;;;2.00;;
12302;SDS011;6214;48.012;7.862;2022-11-02T04:24:07;13.30;;;1.30;;
12302;SDS011;6214;48.012;7.862;2022-11-02T04:26:52;13.02;;;1.67;;
12302;SDS011;6214;48.012;7.862;2022-11-02T04:29:19;12.52;;;1.70;;
12302;SDS011;6214;48.012;7.862;2022-11-02T04:31:45;15.07;;;1.92;;
12302;SDS011;6214;48.012;7.862;2022-11-02T04:34:12;14.40;;;1.80;;
12302;SDS011;6214;48.012;7.862;2022-11-02T04:36:39;13.55;;;1.80;;
12302;SDS011;6214;48.012;7.862;2022-11-02T04:39:06;12.05;;;1.52;;
12302;SDS011;6214;48.012;7.862;2022-11-02T04:41:33;14.13;;;1.50;;
12302;SDS011;6214;48.012;7.862;2022-11-02T04:44:09;13.18;;;1.60;;
12302;SDS011;6214;48.012;7.862;2022-11-02T04:46:38;13.82;;;1.88;;
12302;SDS011;6214;48.012;7.862;2022-11-02T04:49:07;14.20;;;1.60;;
12302;SDS011;6214;48.012;7.862;2022-11-02T04:51:34;12.73;;;1.80;;
12302;SDS011;6214;48.012;7.862;2022-11-02T04:54:01;12.40;;;1.90;;
12302;SDS011;6214;48.012;7.862;2022-11-02T04:56:28;13.43;;;1.70;;
12302;SDS011;6214;48.012;7.862;2022-11-02T04:58:56;13.10;;;1.55;;
12302;SDS011;6214;48.012;7.862;2022-11-02T05:01:25;13.60;;;1.80;;
12302;SDS011;6214;48.012;7.862;2022-11-02T05:03:54;13.65;;;1.70;;
12302;SDS011;6214;48.012;7.862;2022-11-02T05:06:22;13.60;;;1.90;;
12302;SDS011;6214;48.012;7.862;2022-11-02T05:08:50;14.00;;;1.80;;
12302;SDS011;6214;48.012;7.862;2022-11-02T05:11:17;13.63;;;1.92;;
12302;SDS011;6214;48.012;7.862;2022-11-02T05:13:44;13.73;;;1.88;;
12302;SDS011;6214;48.012;7.862;2022-11-02T05:16:11;14.20;;;1.83;;
12302;SDS011;6214;48.012;7.862;2022-11-02T05:18:40;14.82;;;1.70;;
12302;SDS011;6214;48.012;7.862;2022-11-02T05:21:08;13.60;;;2.13;;
12302;SDS011;6214;48.012;7.862;2022-11-02T05:23:36;13.98;;;1.70;;
12302;SDS011;6214;48.012;7.862;2022-11-02T05:26:05;13.80;;;1.80;;
12302;SDS011;6214;48.012;7.862;2022-11-02T05:28:34;12.87;;;1.77;;
12302;SDS011;6214;48.012;7.862;2022-11-02T05:31:01;13.95;;;1.80;;
12302;SDS011;6214;48.012;7.862;2022-11-02T05:33:28;13.77;;;1.70;;
12302;SDS011;6214;48.012;7.862;2022-11-02T05:35:57;13.70;;;1.83;;
12302;SDS011;6214;48.012;7.862;2022-11-02T05:38:25;13.10;;;1.60;;
12302;SDS011;6214;48.012;7.862;2022-11-02T05:40:56;14.20;;;1.67;;
12302;SDS011;6214;48.012;7.862;2022-11-02T05:43:24;14.38;;;1.88;;
12302;SDS011;6214;48.012;7.862;2022-11-02T05:45:55;13.63;;;1.80;;
12302;SDS011;6214;48.012;7.862;2022-11-02T05:48:23;12.02;;;1.48;;
12302;SDS011;6214;48.012;7.862;2022-11-02T05:50:55;14.32;;;2.17;;
12302;SDS011;6214;48.012;7.862;2022-11-02T05:53:23;13.57;;;1.70;;
12302;SDS011;6214;48.012;7.862;2022-11-02T05:55:50;13.40;;;1.60;;
12302;SDS011;6214;48.012;7.862;2022-11-02T05:58:17;14.10;;;2.08;;
12302;SDS011;6214;48.012;7.862;2022-11-02T06:00:44;11.82;;;1.40;;
12302;SDS011;6214;48.012;7.862;2022-11-02T06:03:11;14.57;;;1.70;;
12302;SDS011;6214;48.012;7.862;2022-11-02T06:05:38;12.68;;;1.63;;
12302;SDS011;6214;48.012;7.862;2022-11-02T06:08:05;12.70;;;1.80;;
12302;SDS011;6214;48.012;7.862;2022-11-02T06:10:32;14.90;;;1.70;;
12302;SDS011;6214;48.012;7.862;2022-11-02T06:12:59;12.90;;;1.70;;
12302;SDS011;6214;48.012;7.862;2022-11-02T06:15:28;13.05;;;1.80;;
12302;SDS011;6214;48.012;7.862;2022-11-02T06:17:56;14.90;;;2.08;;
12302;SDS011;6214;48.012;7.862;2022-11-02T06:20:23;13.32;;;1.67;;
12302;SDS011;6214;48.012;7.862;2022-11-02T06:22:50;16.20;;;2.40;;
12302;SDS011;6214;48.012;7.862;2022-11-02T06:25:17;13.13;;;1.70;;
12302;SDS011;6214;48.012;7.862;2022-11-02T06:27:51;13.48;;;1.75;;
12302;SDS011;6214;48.012;7.862;2022-11-02T06:30:22;13.48;;;1.80;;
12302;SDS011;6214;48.012;7.862;2022-11-02T06:32:50;13.60;;;1.70;;
12302;SDS011;6214;48.012;7.862;2022-11-02T06:35:19;13.83;;;1.80;;
12302;SDS011;6214;48.012;7.862;2022-11-02T06:37:47;13.57;;;1.90;;
12302;SDS011;6214;48.012;7.862;2022-11-02T06:40:14;13.00;;;2.00;;
12302;SDS011;6214;48.012;7.862;2022-11-02T06:42:41;12.37;;;1.80;;
12302;SDS011;6214;48.012;7.862;2022-11-02T06:45:28;12.93;;;1.50;;
12302;SDS011;6214;48.012;7.862;2022-11-02T06:47:55;13.68;;;1.90;;
12302;SDS011;6214;48.012;7.862;2022-11-02T06:50:22;12.02;;;1.70;;
12302;SDS011;6214;48.012;7.862;2022-11-02T06:52:50;13.93;;;2.00;;
12302;SDS011;6214;48.012;7.862;2022-11-02T06:55:17;13.70;;;1.80;;
12302;SDS011;6214;48.012;7.862;2022-11-02T06:57:44;12.75;;;1.70;;
12302;SDS011;6214;48.012;7.862;2022-11-02T07:00:12;12.93;;;1.80;;
12302;SDS011;6214;48.012;7.862;2022-11-02T07:02:58;12.68;;;1.75;;
12302;SDS011;6214;48.012;7.862;2022-11-02T07:05:27;13.30;;;1.60;;
12302;SDS011;6214;48.012;7.862;2022-11-02T07:07:54;12.85;;;1.67;;
12302;SDS011;6214;48.012;7.862;2022-11-02T07:10:21;14.03;;;1.90;;
12302;SDS011;6214;48.012;7.862;2022-11-02T07:12:52;12.93;;;1.85;;
12302;SDS011;6214;48.012;7.862;2022-11-02T07:15:20;12.15;;;1.60;;
12302;SDS011;6214;48.012;7.862;2022-11-02T07:17:48;13.45;;;1.90;;
12302;SDS011;6214;48.012;7.862;2022-11-02T07:20:16;13.37;;;1.80;;
12302;SDS011;6214;48.012;7.862;2022-11-02T07:22:53;13.20;;;1.60;;
12302;SDS011;6214;48.012;7.862;2022-11-02T07:25:22;13.75;;;1.80;;
12302;SDS011;6214;48.012;7.862;2022-11-02T07:27:49;13.10;;;1.80;;
12302;SDS011;6214;48.012;7.862;2022-11-02T07:30:16;13.65;;;2.05;;
12302;SDS011;6214;48.012;7.862;2022-11-02T07:32:44;14.23;;;1.90;;
12302;SDS011;6214;48.012;7.862;2022-11-02T07:35:12;12.57;;;1.60;;
12302;SDS011;6214;48.012;7.862;2022-11-02T07:37:40;13.30;;;1.67;;
12302;SDS011;6214;48.012;7.862;2022-11-02T07:40:07;13.15;;;1.77;;
12302;SDS011;6214;48.012;7.862;2022-11-02T07:42:36;12.95;;;1.67;;
12302;SDS011;6214;48.012;7.862;2022-11-02T07:45:09;13.80;;;1.93;;
12302;SDS011;6214;48.012;7.862;2022-11-02T07:47:45;13.43;;;2.10;;
12302;SDS011;6214;48.012;7.862;2022-11-02T07:50:13;13.30;;;1.80;;
12302;SDS011;6214;48.012;7.862;2022-11-02T07:55:19;12.77;;;1.50;;
12302;SDS011;6214;48.012;7.862;2022-11-02T07:57:54;12.67;;;1.47;;
12302;SDS011;6214;48.012;7.862;2022-11-02T08:00:22;13.50;;;1.70;;
12302;SDS011;6214;48.012;7.862;2022-11-02T08:02:53;13.32;;;1.90;;
12302;SDS011;6214;48.012;7.862;2022-11-02T08:05:21;12.40;;;1.50;;
12302;SDS011;6214;48.012;7.862;2022-11-02T08:08:22;13.40;;;1.50;;
12302;SDS011;6214;48.012;7.862;2022-11-02T08:10:43;13.38;;;1.67;;
12302;SDS011;6214;48.012;7.862;2022-11-02T08:13:12;12.33;;;1.70;;
12302;SDS011;6214;48.012;7.862;2022-11-02T08:15:41;14.60;;;1.80;;
12302;SDS011;6214;48.012;7.862;2022-11-02T08:18:12;14.10;;;1.80;;
12302;SDS011;6214;48.012;7.862;2022-11-02T08:20:40;12.55;;;1.83;;
12302;SDS011;6214;48.012;7.862;2022-11-02T08:23:08;13.80;;;1.90;;
12302;SDS011;6214;48.012;7.862;2022-11-02T08:25:36;12.60;;;1.90;;
12302;SDS011;6214;48.012;7.862;2022-11-02T08:28:04;13.93;;;1.80;;
12302;SDS011;6214;48.012;7.862;2022-11-02T08:30:33;12.48;;;1.90;;
12302;SDS011;6214;48.012;7.862;2022-11-02T08:33:04;13.10;;;1.83;;
12302;SDS011;6214;48.012;7.862;2022-11-02T08:35:32;12.70;;;1.80;;
12302;SDS011;6214;48.012;7.862;2022-11-02T08:38:00;15.25;;;2.42;;
12302;SDS011;6214;48.012;7.862;2022-11-02T08:40:27;13.40;;;1.60;;
12302;SDS011;6214;48.012;7.862;2022-11-02T08:42:55;13.63;;;1.58;;
12302;SDS011;6214;48.012;7.862;2022-11-02T08:45:26;12.63;;;1.50;;
12302;SDS011;6214;48.012;7.862;2022-11-02T08:48:04;15.27;;;1.90;;
12302;SDS011;6214;48.012;7.862;2022-11-02T08:50:32;14.65;;;2.28;;
12302;SDS011;6214;48.012;7.862;2022-11-02T08:53:00;13.32;;;1.60;;
12302;SDS011;6214;48.012;7.862;2022-11-02T08:55:27;13.82;;;2.00;;
12302;SDS011;6214;48.012;7.862;2022-11-02T08:57:54;14.30;;;1.75;;
12302;SDS011;6214;48.012;7.862;2022-11-02T09:00:23;14.50;;;1.50;;
12302;SDS011;6214;48.012;7.862;2022-11-02T09:05:29;13.23;;;1.80;;
12302;SDS011;6214;48.012;7.862;2022-11-02T09:07:58;15.30;;;1.63;;
12302;SDS011;6214;48.012;7.862;2022-11-02T09:10:28;12.65;;;1.60;;
12302;SDS011;6214;48.012;7.862;2022-11-02T09:12:59;15.50;;;2.10;;
12302;SDS011;6214;48.012;7.862;2022-11-02T09:15:28;15.23;;;1.83;;
12302;SDS011;6214;48.012;7.862;2022-11-02T09:17:55;12.75;;;1.60;;
12302;SDS011;6214;48.012;7.862;2022-11-02T09:20:22;12.07;;;1.60;;
12302;SDS011;6214;48.012;7.862;2022-11-02T09:22:49;12.18;;;1.60;;
12302;SDS011;6214;48.012;7.862;2022-11-02T09:25:16;14.95;;;1.70;;
12302;SDS011;6214;48.012;7.862;2022-11-02T09:27:43;13.75;;;1.88;;
12302;SDS011;6214;48.012;7.862;2022-11-02T09:30:10;12.90;;;2.00;;
12302;SDS011;6214;48.012;7.862;2022-11-02T09:32:38;14.93;;;2.10;;
12302;SDS011;6214;48.012;7.862;2022-11-02T09:35:08;14.00;;;2.13;;
12302;SDS011;6214;48.012;7.862;2022-11-02T09:37:36;13.85;;;1.90;;
12302;SDS011;6214;48.012;7.862;2022-11-02T09:40:04;11.88;;;1.50;;
12302;SDS011;6214;48.012;7.862;2022-11-02T09:42:34;12.23;;;1.52;;
12302;SDS011;6214;48.012;7.862;2022-11-02T09:45:22;13.40;;;1.70;;
12302;SDS011;6214;48.012;7.862;2022-11-02T09:47:51;13.43;;;1.70;;
12302;SDS011;6214;48.012;7.862;2022-11-02T09:50:48;14.05;;;1.88;;
12302;SDS011;6214;48.012;7.862;2022-11-02T09:53:35;14.63;;;2.05;;
12302;SDS011;6214;48.012;7.862;2022-11-02T09:56:21;13.18;;;1.60;;
12302;SDS011;6214;48.012;7.862;2022-11-02T09:58:52;12.32;;;1.70;;
12302;SDS011;6214;48.012;7.862;2022-11-02T10:10:11;12.10;;;1.70;;
12302;SDS011;6214;48.012;7.862;2022-11-02T10:12:42;12.95;;;1.45;;
12302;SDS011;6214;48.012;7.862;2022-11-02T10:15:19;12.23;;;1.40;;
12302;SDS011;6214;48.012;7.862;2022-11-02T10:17:52;13.40;;;2.00;;
12302;SDS011;6214;48.012;7.862;2022-11-02T10:20:24;12.68;;;1.65;;
12302;SDS011;6214;48.012;7.862;2022-11-02T10:22:53;13.77;;;1.80;;
12302;SDS011;6214;48.012;7.862;2022-11-02T10:25:29;13.35;;;2.00;;
12302;SDS011;6214;48.012;7.862;2022-11-02T10:27:58;12.93;;;2.30;;
12302;SDS011;6214;48.012;7.862;2022-11-02T10:30:35;13.77;;;1.88;;
12302;SDS011;6214;48.012;7.862;2022-11-02T10:33:03;13.00;;;2.10;;
12302;SDS011;6214;48.012;7.862;2022-11-02T10:43:51;14.07;;;1.80;;
12302;SDS011;6214;48.012;7.862;2022-11-02T10:51:57;12.43;;;1.58;;
12302;SDS011;6214;48.012;7.862;2022-11-02T10:54:24;12.73;;;1.60;;
12302;SDS011;6214;48.012;7.862;2022-11-02T10:56:59;12.93;;;1.85;;
12302;SDS011;6214;48.012;7.862;2022-11-02T10:59:35;14.88;;;2.10;;
12302;SDS011;6214;48.012;7.862;2022-11-02T11:02:04;14.40;;;1.98;;
12302;SDS011;6214;48.012;7.862;2022-11-02T11:04:43;15.35;;;2.03;;
12302;SDS011;6214;48.012;7.862;2022-11-02T11:07:13;13.43;;;1.80;;
12302;SDS011;6214;48.012;7.862;2022-11-02T11:09:50;13.75;;;2.20;;
12302;SDS011;6214;48.012;7.862;2022-11-02T11:12:33;14.50;;;2.00;;
12302;SDS011;6214;48.012;7.862;2022-11-02T11:15:04;13.90;;;2.10;;
12302;SDS011;6214;48.012;7.862;2022-11-02T11:17:52;14.32;;;2.00;;
12302;SDS011;6214;48.012;7.862;2022-11-02T11:20:40;13.48;;;2.00;;
12302;SDS011;6214;48.012;7.862;2022-11-02T11:25:40;13.88;;;1.90;;
12302;SDS011;6214;48.012;7.862;2022-11-02T11:28:21;13.50;;;1.92;;
12302;SDS011;6214;48.012;7.862;2022-11-02T11:31:01;13.47;;;1.47;;
12302;SDS011;6214;48.012;7.862;2022-11-02T11:33:31;13.75;;;1.90;;
12302;SDS011;6214;48.012;7.862;2022-11-02T11:36:08;13.93;;;2.10;;
12302;SDS011;6214;48.012;7.862;2022-11-02T11:38:36;12.55;;;1.98;;
12302;SDS011;6214;48.012;7.862;2022-11-02T11:41:11;12.52;;;1.65;;
12302;SDS011;6214;48.012;7.862;2022-11-02T11:43:38;15.10;;;2.30;;
12302;SDS011;6214;48.012;7.862;2022-11-02T11:46:06;12.82;;;1.90;;
12302;SDS011;6214;48.012;7.862;2022-11-02T11:48:37;12.73;;;1.63;;
12302;SDS011;6214;48.012;7.862;2022-11-02T11:54:17;13.77;;;2.00;;
12302;SDS011;6214;48.012;7.862;2022-11-02T11:56:45;13.90;;;1.92;;
12302;SDS011;6214;48.012;7.862;2022-11-02T11:59:56;12.95;;;1.60;;
12302;SDS011;6214;48.012;7.862;2022-11-02T12:02:42;13.80;;;2.05;;
12302;SDS011;6214;48.012;7.862;2022-11-02T12:05:14;13.52;;;1.80;;
12302;SDS011;6214;48.012;7.862;2022-11-02T12:13:19;15.50;;;2.20;;
12302;SDS011;6214;48.012;7.862;2022-11-02T12:21:52;14.10;;;1.85;;
12302;SDS011;6214;48.012;7.862;2022-11-02T12:25:23;14.55;;;1.92;;
12302;SDS011;6214;48.012;7.862;2022-11-02T12:27:54;14.93;;;2.15;;
12302;SDS011;6214;48.012;7.862;2022-11-02T12:33:15;14.60;;;1.90;;
12302;SDS011;6214;48.012;7.862;2022-11-02T12:42:20;15.45;;;2.40;;
12302;SDS011;6214;48.012;7.862;2022-11-02T12:47:57;13.70;;;1.90;;
12302;SDS011;6214;48.012;7.862;2022-11-02T12:50:32;15.27;;;2.00;;
12302;SDS011;6214;48.012;7.862;2022-11-02T12:56:03;14.85;;;2.60;;
12302;SDS011;6214;48.012;7.862;2022-11-02T12:58:33;15.77;;;2.00;;
12302;SDS011;6214;48.012;7.862;2022-11-02T13:06:25;13.20;;;1.77;;
12302;SDS011;6214;48.012;7.862;2022-11-02T13:09:00;15.43;;;2.30;;
12302;SDS011;6214;48.012;7.862;2022-11-02T13:11:36;12.97;;;1.87;;
12302;SDS011;6214;48.012;7.862;2022-11-02T13:14:13;14.15;;;1.80;;
12302;SDS011;6214;48.012;7.862;2022-11-02T13:16:53;14.10;;;2.20;;
12302;SDS011;6214;48.012;7.862;2022-11-02T13:19:48;13.93;;;2.10;;
12302;SDS011;6214;48.012;7.862;2022-11-02T13:22:25;13.50;;;1.60;;
12302;SDS011;6214;48.012;7.862;2022-11-02T13:25:01;15.15;;;1.90;;
12302;SDS011;6214;48.012;7.862;2022-11-02T13:27:41;15.05;;;2.20;;
12302;SDS011;6214;48.012;7.862;2022-11-02T13:30:18;14.13;;;1.85;;
12302;SDS011;6214;48.012;7.862;2022-11-02T13:33:02;15.32;;;2.30;;
12302;SDS011;6214;48.012;7.862;2022-11-02T13:35:36;13.18;;;1.63;;
12302;SDS011;6214;48.012;7.862;2022-11-02T13:51:38;13.90;;;2.10;;
12302;SDS011;6214;48.012;7.862;2022-11-02T13:54:16;15.10;;;2.30;;
12302;SDS011;6214;48.012;7.862;2022-11-02T13:56:50;14.05;;;1.95;;
12302;SDS011;6214;48.012;7.862;2022-11-02T13:59:21;13.50;;;1.98;;
12302;SDS011;6214;48.012;7.862;2022-11-02T14:01:52;15.55;;;2.20;;
12302;SDS011;6214;48.012;7.862;2022-11-02T14:04:20;15.30;;;2.20;;
12302;SDS011;6214;48.012;7.862;2022-11-02T14:07:00;14.75;;;1.90;;
12302;SDS011;6214;48.012;7.862;2022-11-02T14:09:34;15.50;;;2.17;;
12302;SDS011;6214;48.012;7.862;2022-11-02T14:25:55;12.37;;;1.67;;
12302;SDS011;6214;48.012;7.862;2022-11-02T14:41:27;14.07;;;2.08;;
12302;SDS011;6214;48.012;7.862;2022-11-02T14:44:53;13.45;;;1.90;;
12302;SDS011;6214;48.012;7.862;2022-11-02T14:47:01;14.07;;;2.20;;
12302;SDS011;6214;48.012;7.862;2022-11-02T14:49:39;13.57;;;1.80;;
12302;SDS011;6214;48.012;7.862;2022-11-02T14:52:21;13.20;;;2.00;;
12302;SDS011;6214;48.012;7.862;2022-11-02T14:54:50;15.45;;;2.03;;
12302;SDS011;6214;48.012;7.862;2022-11-02T14:57:40;14.02;;;1.95;;
12302;SDS011;6214;48.012;7.862;2022-11-02T15:00:19;13.20;;;1.70;;
12302;SDS011;6214;48.012;7.862;2022-11-02T15:02:48;13.52;;;1.98;;
12302;SDS011;6214;48.012;7.862;2022-11-02T15:05:22;13.80;;;1.90;;
12302;SDS011;6214;48.012;7.862;2022-11-02T15:07:58;15.52;;;2.10;;
12302;SDS011;6214;48.012;7.862;2022-11-02T15:10:42;14.40;;;1.98;;
12302;SDS011;6214;48.012;7.862;2022-11-02T15:26:22;15.17;;;2.07;;
12302;SDS011;6214;48.012;7.862;2022-11-02T15:28:53;15.55;;;2.10;;
12302;SDS011;6214;48.012;7.862;2022-11-02T15:31:23;14.05;;;1.80;;
12302;SDS011;6214;48.012;7.862;2022-11-02T15:33:52;13.80;;;2.00;;
12302;SDS011;6214;48.012;7.862;2022-11-02T15:36:29;13.43;;;1.80;;
12302;SDS011;6214;48.012;7.862;2022-11-02T15:39:01;13.23;;;1.95;;
12302;SDS011;6214;48.012;7.862;2022-11-02T15:41:35;14.98;;;2.40;;
12302;SDS011;6214;48.012;7.862;2022-11-02T15:44:14;12.70;;;2.00;;
12302;SDS011;6214;48.012;7.862;2022-11-02T15:52:35;14.70;;;2.20;;
12302;SDS011;6214;48.012;7.862;2022-11-02T16:03:46;13.02;;;1.90;;
12302;SDS011;6214;48.012;7.862;2022-11-02T16:06:24;13.02;;;1.80;;
12302;SDS011;6214;48.012;7.862;2022-11-02T16:08:53;14.10;;;2.10;;
12302;SDS011;6214;48.012;7.862;2022-11-02T16:11:22;14.30;;;2.00;;
12302;SDS011;6214;48.012;7.862;2022-11-02T16:13:49;14.57;;;2.45;;
12302;SDS011;6214;48.012;7.862;2022-11-02T16:16:44;13.07;;;2.17;;
12302;SDS011;6214;48.012;7.862;2022-11-02T16:19:16;16.48;;;2.30;;
12302;SDS011;6214;48.012;7.862;2022-11-02T16:21:45;13.25;;;1.90;;
12302;SDS011;6214;48.012;7.862;2022-11-02T16:24:13;13.80;;;2.03;;
12302;SDS011;6214;48.012;7.862;2022-11-02T16:26:40;13.75;;;1.65;;
12302;SDS011;6214;48.012;7.862;2022-11-02T16:29:08;13.35;;;2.20;;
12302;SDS011;6214;48.012;7.862;2022-11-02T16:31:36;15.07;;;1.98;;
12302;SDS011;6214;48.012;7.862;2022-11-02T16:34:06;12.23;;;1.70;;
12302;SDS011;6214;48.012;7.862;2022-11-02T16:36:56;13.82;;;2.33;;
12302;SDS011;6214;48.012;7.862;2022-11-02T16:39:31;13.67;;;2.00;;
12302;SDS011;6214;48.012;7.862;2022-11-02T16:42:06;12.15;;;1.88;;
12302;SDS011;6214;48.012;7.862;2022-11-02T16:44:35;14.90;;;2.03;;
12302;SDS011;6214;48.012;7.862;2022-11-02T16:49:31;13.00;;;1.80;;
12302;SDS011;6214;48.012;7.862;2022-11-02T16:52:16;14.27;;;2.42;;
12302;SDS011;6214;48.012;7.862;2022-11-02T16:54:46;15.65;;;2.50;;
12302;SDS011;6214;48.012;7.862;2022-11-02T16:57:23;18.65;;;6.55;;
12302;SDS011;6214;48.012;7.862;2022-11-02T17:02:40;16.75;;;4.10;;
12302;SDS011;6214;48.012;7.862;2022-11-02T17:05:21;17.20;;;4.90;;
12302;SDS011;6214;48.012;7.862;2022-11-02T17:08:02;15.77;;;3.57;;
12302;SDS011;6214;48.012;7.862;2022-11-02T17:10:35;15.70;;;4.00;;
12302;SDS011;6214;48.012;7.862;2022-11-02T17:13:04;15.70;;;4.15;;
12302;SDS011;6214;48.012;7.862;2022-11-02T17:15:48;13.73;;;3.20;;
12302;SDS011;6214;48.012;7.862;2022-11-02T17:20:46;16.02;;;3.13;;
12302;SDS011;6214;48.012;7.862;2022-11-02T17:23:30;14.60;;;2.80;;
12302;SDS011;6214;48.012;7.862;2022-11-02T17:28:49;15.15;;;3.30;;
12302;SDS011;6214;48.012;7.862;2022-11-02T17:31:21;14.13;;;3.03;;
12302;SDS011;6214;48.012;7.862;2022-11-02T17:33:52;17.20;;;4.10;;
12302;SDS011;6214;48.012;7.862;2022-11-02T17:36:19;16.25;;;4.40;;
12302;SDS011;6214;48.012;7.862;2022-11-02T17:38:47;14.80;;;2.90;;
12302;SDS011;6214;48.012;7.862;2022-11-02T17:41:17;15.40;;;4.65;;
12302;SDS011;6214;48.012;7.862;2022-11-02T17:44:03;17.80;;;4.45;;
12302;SDS011;6214;48.012;7.862;2022-11-02T17:46:36;15.77;;;2.92;;
12302;SDS011;6214;48.012;7.862;2022-11-02T17:49:08;14.95;;;2.58;;
12302;SDS011;6214;48.012;7.862;2022-11-02T17:51:35;13.50;;;2.53;;
12302;SDS011;6214;48.012;7.862;2022-11-02T17:54:02;15.00;;;2.10;;
12302;SDS011;6214;48.012;7.862;2022-11-02T17:56:30;14.07;;;2.67;;
12302;SDS011;6214;48.012;7.862;2022-11-02T17:58:56;14.90;;;2.90;;
12302;SDS011;6214;48.012;7.862;2022-11-02T18:01:23;15.45;;;2.80;;
12302;SDS011;6214;48.012;7.862;2022-11-02T18:03:50;13.68;;;2.50;;
12302;SDS011;6214;48.012;7.862;2022-11-02T18:06:17;13.95;;;2.80;;